createdAt,value
2022-07-26T00:00:45.127Z,4.50
2022-07-26T00:03:17.473Z,4.00
2022-07-26T00:05:49.818Z,5.70
2022-07-26T00:08:22.424Z,4.10
2022-07-26T00:10:54.694Z,6.20
2022-07-26T00:13:30.118Z,4.30
2022-07-26T00:16:03.103Z,4.60
2022-07-26T00:18:35.783Z,6.80
2022-07-26T00:21:08.751Z,6.00
2022-07-26T00:23:41.297Z,6.50
2022-07-26T00:26:13.306Z,4.80
2022-07-26T00:28:45.637Z,6.50
2022-07-26T00:31:17.856Z,5.90
2022-07-26T00:33:50.680Z,6.10
2022-07-26T00:36:23.007Z,6.40
2022-07-26T00:38:56.742Z,7.60
2022-07-26T00:41:28.899Z,5.30
2022-07-26T00:44:01.836Z,6.20
2022-07-26T00:46:34.371Z,5.80
2022-07-26T00:49:07.088Z,6.40
2022-07-26T00:51:39.433Z,6.70
2022-07-26T00:54:11.829Z,5.10
2022-07-26T00:56:43.761Z,7.20
2022-07-26T00:59:17.864Z,7.70
2022-07-26T01:01:49.889Z,5.50
2022-07-26T01:04:22.322Z,6.20
2022-07-26T01:06:55.878Z,6.20
2022-07-26T01:09:28.174Z,7.20
2022-07-26T01:12:00.790Z,6.30
2022-07-26T01:14:32.817Z,8.30
2022-07-26T01:17:05.472Z,6.70
2022-07-26T01:19:37.460Z,6.70
2022-07-26T01:22:14.368Z,7.90
2022-07-26T01:24:48.664Z,6.70
2022-07-26T01:27:21.266Z,7.40
2022-07-26T01:29:53.751Z,11.20
2022-07-26T01:32:26.504Z,7.10
2022-07-26T01:34:58.471Z,7.10
2022-07-26T01:37:30.763Z,7.20
2022-07-26T01:40:07.246Z,8.70
2022-07-26T01:42:41.304Z,6.50
2022-07-26T01:45:14.745Z,6.90
2022-07-26T01:47:50.280Z,6.70
2022-07-26T01:50:22.327Z,8.40
2022-07-26T01:52:54.396Z,6.90
2022-07-26T01:55:26.779Z,8.00
2022-07-26T01:57:58.926Z,5.70
2022-07-26T02:00:32.014Z,6.60
2022-07-26T02:03:04.802Z,6.70
2022-07-26T02:05:37.353Z,8.00
2022-07-26T02:08:09.686Z,8.50
2022-07-26T02:11:00.585Z,8.80
2022-07-26T02:13:37.658Z,4.90
2022-07-26T02:16:13.578Z,6.30
2022-07-26T02:18:45.938Z,10.10
2022-07-26T02:21:18.764Z,8.70
2022-07-26T02:23:50.975Z,7.70
2022-07-26T02:26:23.469Z,7.30
2022-07-26T02:28:55.586Z,5.60
2022-07-26T02:31:32.373Z,7.90
2022-07-26T02:34:05.627Z,8.00
2022-07-26T02:36:39.929Z,5.80
2022-07-26T02:39:12.538Z,7.00
2022-07-26T02:41:45.154Z,8.30
2022-07-26T02:44:17.161Z,8.00
2022-07-26T02:46:49.480Z,6.90
2022-07-26T02:49:23.654Z,6.20
2022-07-26T02:51:56.330Z,7.80
2022-07-26T02:54:28.291Z,7.20
2022-07-26T02:57:00.767Z,8.30
2022-07-26T02:59:32.953Z,8.30
2022-07-26T03:02:05.422Z,7.00
2022-07-26T03:04:38.141Z,7.10
2022-07-26T03:07:10.427Z,8.60
2022-07-26T03:09:42.752Z,7.80
2022-07-26T03:12:14.940Z,7.90
2022-07-26T03:14:47.339Z,6.80
2022-07-26T03:17:21.000Z,6.90
2022-07-26T03:19:53.638Z,8.80
2022-07-26T03:22:26.238Z,7.40
2022-07-26T03:24:58.411Z,7.70
2022-07-26T03:27:30.611Z,7.80
2022-07-26T03:30:02.828Z,8.10
2022-07-26T03:32:35.133Z,8.20
2022-07-26T03:35:09.452Z,7.90
2022-07-26T03:37:45.675Z,6.90
2022-07-26T03:40:20.058Z,7.00
2022-07-26T03:42:52.768Z,6.00
2022-07-26T03:45:25.670Z,7.40
2022-07-26T03:47:57.827Z,8.40
2022-07-26T03:50:30.277Z,7.80
2022-07-26T03:53:03.083Z,7.40
2022-07-26T03:55:53.096Z,8.50
2022-07-26T03:58:25.263Z,8.60
2022-07-26T04:00:57.989Z,9.00
2022-07-26T04:03:30.224Z,9.50
2022-07-26T04:06:03.555Z,7.10
2022-07-26T04:08:38.050Z,12.40
2022-07-26T04:11:10.954Z,11.50
2022-07-26T04:13:42.978Z,6.50
2022-07-26T04:16:15.600Z,8.10
2022-07-26T04:18:47.694Z,6.90
2022-07-26T04:21:20.129Z,7.40
2022-07-26T04:23:52.878Z,6.70
2022-07-26T04:26:25.963Z,7.50
2022-07-26T04:29:01.107Z,6.60
2022-07-26T04:31:36.103Z,9.20
2022-07-26T04:34:10.673Z,6.70
2022-07-26T04:36:43.791Z,10.00
2022-07-26T04:39:24.550Z,6.00
2022-07-26T04:41:56.698Z,6.30
2022-07-26T04:44:29.074Z,5.80
2022-07-26T04:47:01.039Z,7.40
2022-07-26T04:49:33.172Z,7.70
2022-07-26T04:52:05.938Z,9.00
2022-07-26T04:54:38.156Z,8.30
2022-07-26T04:57:10.726Z,7.50
2022-07-26T04:59:43.531Z,6.40
2022-07-26T05:02:16.114Z,8.60
2022-07-26T05:04:48.511Z,6.10
2022-07-26T05:07:21.421Z,9.00
2022-07-26T05:09:54.099Z,7.20
2022-07-26T05:12:26.214Z,9.10
2022-07-26T05:14:58.463Z,6.00
2022-07-26T05:17:30.916Z,5.70
2022-07-26T05:20:03.690Z,6.30
2022-07-26T05:22:36.005Z,7.40
2022-07-26T05:25:10.438Z,7.80
2022-07-26T05:27:42.928Z,7.50
2022-07-26T05:30:15.819Z,7.00
2022-07-26T05:32:48.074Z,7.30
2022-07-26T05:35:20.208Z,11.20
2022-07-26T05:37:54.317Z,8.30
2022-07-26T05:40:26.623Z,8.00
2022-07-26T05:42:59.505Z,10.50
2022-07-26T05:45:32.067Z,9.70
2022-07-26T05:48:08.418Z,8.10
2022-07-26T05:50:40.514Z,7.80
2022-07-26T05:53:12.863Z,7.60
2022-07-26T05:55:45.233Z,11.10
2022-07-26T05:58:17.756Z,9.10
2022-07-26T06:00:49.812Z,10.70
2022-07-26T06:03:25.190Z,9.60
2022-07-26T06:05:59.225Z,13.50
2022-07-26T06:08:33.650Z,9.40
2022-07-26T06:11:05.848Z,8.10
2022-07-26T06:13:38.223Z,9.90
2022-07-26T06:16:11.531Z,8.80
2022-07-26T06:18:43.879Z,9.50
2022-07-26T06:21:15.939Z,11.40
2022-07-26T06:23:49.723Z,10.70
2022-07-26T06:26:24.330Z,11.20
2022-07-26T06:28:56.496Z,13.20
2022-07-26T06:31:28.924Z,13.60
2022-07-26T06:34:02.170Z,18.10
2022-07-26T06:36:34.247Z,18.80
2022-07-26T06:39:06.777Z,16.20
2022-07-26T06:41:38.792Z,17.30
2022-07-26T06:44:11.656Z,20.10
2022-07-26T06:46:44.130Z,14.70
2022-07-26T06:49:20.575Z,13.50
2022-07-26T06:51:58.151Z,16.90
2022-07-26T06:54:30.336Z,16.90
2022-07-26T06:57:04.723Z,14.50
2022-07-26T06:59:37.977Z,14.70
2022-07-26T07:02:09.980Z,12.70
2022-07-26T07:04:42.012Z,15.00
2022-07-26T07:07:14.022Z,13.40
2022-07-26T07:09:47.229Z,13.90
2022-07-26T07:12:19.374Z,15.70
2022-07-26T07:14:51.414Z,14.90
2022-07-26T07:17:23.704Z,13.60
2022-07-26T07:19:55.759Z,15.50
2022-07-26T07:22:29.165Z,16.50
2022-07-26T07:25:03.030Z,18.20
2022-07-26T07:27:36.096Z,15.70
2022-07-26T07:30:11.020Z,17.10
2022-07-26T07:32:43.923Z,17.10
2022-07-26T07:35:16.954Z,15.80
2022-07-26T07:37:52.714Z,15.70
2022-07-26T07:40:27.254Z,17.70
2022-07-26T07:43:03.124Z,15.70
2022-07-26T07:45:36.333Z,15.20
2022-07-26T07:48:09.789Z,16.50
2022-07-26T07:50:42.156Z,15.90
2022-07-26T07:53:14.315Z,15.10
2022-07-26T07:55:47.056Z,14.30
2022-07-26T07:58:21.027Z,14.50
2022-07-26T08:00:53.217Z,14.70
2022-07-26T08:03:25.594Z,13.20
2022-07-26T08:06:12.034Z,12.30
2022-07-26T08:08:44.451Z,12.20
2022-07-26T08:11:16.913Z,11.40
2022-07-26T08:13:49.191Z,12.10
2022-07-26T08:16:21.672Z,10.90
2022-07-26T08:19:08.696Z,13.20
2022-07-26T08:21:41.012Z,14.10
2022-07-26T08:24:14.767Z,14.70
2022-07-26T08:26:46.723Z,14.50
2022-07-26T08:29:19.120Z,15.00
2022-07-26T08:31:53.276Z,15.70
2022-07-26T08:34:26.300Z,16.30
2022-07-26T08:37:15.901Z,16.00
2022-07-26T08:39:50.622Z,16.70
2022-07-26T08:42:24.361Z,16.30
2022-07-26T08:44:57.845Z,16.90
2022-07-26T08:47:37.497Z,16.30
2022-07-26T08:50:12.757Z,15.80
2022-07-26T08:52:45.584Z,16.90
2022-07-26T08:55:21.307Z,16.70
2022-07-26T08:57:53.371Z,15.80
2022-07-26T09:00:29.850Z,17.00
2022-07-26T09:03:05.837Z,16.70
2022-07-26T09:05:40.295Z,15.60
2022-07-26T09:08:26.545Z,16.50
2022-07-26T09:11:00.159Z,15.60
2022-07-26T09:13:53.710Z,16.20
2022-07-26T09:16:26.072Z,17.50
2022-07-26T09:19:17.780Z,16.80
2022-07-26T09:21:50.697Z,15.80
2022-07-26T09:24:34.954Z,15.60
2022-07-26T09:27:09.665Z,14.60
2022-07-26T09:29:49.735Z,14.90
2022-07-26T09:32:23.460Z,14.00
2022-07-26T09:34:58.738Z,15.40
2022-07-26T09:37:39.636Z,13.70
2022-07-26T09:40:15.203Z,13.40
2022-07-26T09:43:00.265Z,12.90
2022-07-26T09:45:34.265Z,13.30
2022-07-26T09:48:07.787Z,11.90
2022-07-26T09:50:40.368Z,12.30
2022-07-26T09:53:14.372Z,11.00
2022-07-26T09:55:58.696Z,11.00
2022-07-26T09:58:30.991Z,11.80
2022-07-26T10:01:06.605Z,10.80
2022-07-26T10:03:38.913Z,11.20
2022-07-26T10:06:12.763Z,11.10
2022-07-26T10:08:46.352Z,11.50
2022-07-26T10:11:18.865Z,11.70
2022-07-26T10:13:51.146Z,11.60
2022-07-26T10:16:36.654Z,11.30
2022-07-26T10:19:10.586Z,11.70
2022-07-26T10:21:44.338Z,12.10
2022-07-26T10:24:28.823Z,12.50
2022-07-26T10:27:03.205Z,13.90
2022-07-26T10:29:37.421Z,13.70
2022-07-26T10:32:21.492Z,14.30
2022-07-26T10:34:53.873Z,14.10
2022-07-26T10:37:28.229Z,13.50
2022-07-26T10:40:22.731Z,13.20
2022-07-26T10:42:55.639Z,13.60
2022-07-26T10:45:29.216Z,12.60
2022-07-26T10:48:16.693Z,14.60
2022-07-26T10:50:50.707Z,12.20
2022-07-26T10:53:24.645Z,12.90
2022-07-26T10:56:01.503Z,11.90
2022-07-26T10:58:44.532Z,12.70
2022-07-26T11:01:16.516Z,13.00
2022-07-26T11:03:48.949Z,12.60
2022-07-26T11:06:22.183Z,13.10
2022-07-26T11:08:56.059Z,15.30
2022-07-26T11:11:33.351Z,15.70
2022-07-26T11:14:11.341Z,14.10
2022-07-26T11:16:45.718Z,13.50
2022-07-26T11:19:19.555Z,12.50
2022-07-26T11:21:57.264Z,12.20
2022-07-26T11:24:29.643Z,11.50
2022-07-26T11:27:06.234Z,12.20
2022-07-26T11:29:41.127Z,12.90
2022-07-26T11:32:22.034Z,12.70
2022-07-26T11:35:02.392Z,13.70
2022-07-26T11:37:35.031Z,13.50
2022-07-26T11:40:09.186Z,14.80
2022-07-26T11:42:41.393Z,14.50
2022-07-26T11:45:14.328Z,16.70
2022-07-26T11:47:46.343Z,16.40
2022-07-26T11:50:22.925Z,15.70
2022-07-26T11:52:56.355Z,16.10
2022-07-26T11:55:34.275Z,16.80
2022-07-26T11:58:08.750Z,18.70
2022-07-26T12:00:41.831Z,17.90
2022-07-26T12:03:13.848Z,17.00
2022-07-26T12:05:46.492Z,17.20
2022-07-26T12:08:18.841Z,17.20
2022-07-26T12:10:57.750Z,19.30
2022-07-26T12:13:39.853Z,15.80
2022-07-26T12:16:46.487Z,14.20
2022-07-26T12:19:32.025Z,14.10
2022-07-26T12:22:13.527Z,14.70
2022-07-26T12:24:48.696Z,14.30
2022-07-26T12:27:22.170Z,14.30
2022-07-26T12:29:56.418Z,13.50
2022-07-26T12:32:35.905Z,15.00
2022-07-26T12:35:11.182Z,16.10
2022-07-26T12:37:53.791Z,16.20
2022-07-26T12:40:27.639Z,15.50
2022-07-26T12:43:04.658Z,14.40
2022-07-26T12:45:38.641Z,15.10
2022-07-26T12:48:14.502Z,15.50
2022-07-26T12:50:46.989Z,15.50
2022-07-26T12:53:19.020Z,15.00
2022-07-26T12:55:51.250Z,14.10
2022-07-26T12:58:24.316Z,15.70
2022-07-26T13:00:57.832Z,14.60
2022-07-26T13:03:30.245Z,14.70
2022-07-26T13:06:03.525Z,14.00
2022-07-26T13:08:35.690Z,14.50
2022-07-26T13:11:08.467Z,15.20
2022-07-26T13:13:40.976Z,14.60
2022-07-26T13:16:13.054Z,13.10
2022-07-26T13:18:45.273Z,13.40
2022-07-26T13:21:19.866Z,13.00
2022-07-26T13:23:51.930Z,12.10
2022-07-26T13:26:26.273Z,12.70
2022-07-26T13:29:00.561Z,13.50
2022-07-26T13:31:34.794Z,12.90
2022-07-26T13:34:07.167Z,13.50
2022-07-26T13:36:39.656Z,14.20
2022-07-26T13:39:12.172Z,13.60
2022-07-26T13:41:46.770Z,13.30
2022-07-26T13:44:19.645Z,14.00
2022-07-26T13:46:52.490Z,15.50
2022-07-26T13:49:24.880Z,13.20
2022-07-26T13:52:00.118Z,12.90
2022-07-26T13:54:34.902Z,13.50
2022-07-26T13:57:07.993Z,12.40
2022-07-26T13:59:40.269Z,12.30
2022-07-26T14:02:12.334Z,12.80
2022-07-26T14:04:45.561Z,11.90
2022-07-26T14:07:19.295Z,12.00
2022-07-26T14:09:51.493Z,9.90
2022-07-26T14:12:24.199Z,10.10
2022-07-26T14:14:56.446Z,11.10
2022-07-26T14:17:28.711Z,11.10
2022-07-26T14:20:00.869Z,10.50
2022-07-26T14:22:34.102Z,10.60
2022-07-26T14:25:08.377Z,9.40
2022-07-26T14:27:41.011Z,11.50
2022-07-26T14:30:15.478Z,10.30
2022-07-26T14:32:48.347Z,11.10
2022-07-26T14:35:20.534Z,11.80
2022-07-26T14:37:52.900Z,10.30
2022-07-26T14:40:25.601Z,10.70
2022-07-26T14:42:58.243Z,11.10
2022-07-26T14:45:32.051Z,10.60
2022-07-26T14:48:05.934Z,11.10
2022-07-26T14:51:07.154Z,11.10
2022-07-26T14:53:31.263Z,11.00
2022-07-26T14:56:06.120Z,12.00
2022-07-26T14:58:39.355Z,15.60
2022-07-26T15:01:11.728Z,12.50
2022-07-26T15:03:43.887Z,14.00
2022-07-26T15:06:16.608Z,15.30
2022-07-26T15:08:49.751Z,14.10
2022-07-26T15:11:21.886Z,15.10
2022-07-26T15:13:54.602Z,16.90
2022-07-26T15:16:26.688Z,16.00
2022-07-26T15:19:00.429Z,16.10
2022-07-26T15:21:32.605Z,16.00
2022-07-26T15:24:05.268Z,14.90
2022-07-26T15:26:37.456Z,15.20
2022-07-26T15:29:10.114Z,16.10
2022-07-26T15:31:43.159Z,15.60
2022-07-26T15:34:15.929Z,15.40
2022-07-26T15:36:48.816Z,14.60
2022-07-26T15:39:21.083Z,13.60
2022-07-26T15:41:53.877Z,14.20
2022-07-26T15:44:28.872Z,14.00
2022-07-26T15:47:01.741Z,13.20
2022-07-26T15:49:40.476Z,13.80
2022-07-26T15:52:13.808Z,15.10
2022-07-26T15:54:46.482Z,13.30
2022-07-26T15:57:19.143Z,15.90
2022-07-26T15:59:51.736Z,16.70
2022-07-26T16:02:24.900Z,16.20
2022-07-26T16:04:57.717Z,16.90
2022-07-26T16:07:29.759Z,14.80
2022-07-26T16:10:02.896Z,12.70
2022-07-26T16:12:35.933Z,14.80
2022-07-26T16:15:11.091Z,16.80
2022-07-26T16:17:43.219Z,14.50
2022-07-26T16:20:16.519Z,14.70
2022-07-26T16:22:48.726Z,15.40
2022-07-26T16:25:20.905Z,15.50
2022-07-26T16:27:55.165Z,15.90
2022-07-26T16:30:27.605Z,15.00
2022-07-26T16:32:59.654Z,16.10
2022-07-26T16:35:32.080Z,15.00
2022-07-26T16:38:07.310Z,16.80
2022-07-26T16:40:39.886Z,14.60
2022-07-26T16:43:12.294Z,14.90
2022-07-26T16:45:46.057Z,15.50
2022-07-26T16:48:18.589Z,13.30
2022-07-26T16:50:50.821Z,13.30
2022-07-26T16:53:24.652Z,14.80
2022-07-26T16:55:57.002Z,16.00
2022-07-26T16:58:29.479Z,15.70
2022-07-26T17:01:03.388Z,13.10
2022-07-26T17:03:35.366Z,13.30
2022-07-26T17:06:07.848Z,11.90
2022-07-26T17:08:41.754Z,11.70
2022-07-26T17:11:13.981Z,11.30
2022-07-26T17:13:46.222Z,11.30
2022-07-26T17:16:24.237Z,11.70
2022-07-26T17:18:57.725Z,12.10
2022-07-26T17:21:29.991Z,11.90
2022-07-26T17:24:05.559Z,11.80
2022-07-26T17:26:38.216Z,12.00
2022-07-26T17:29:13.660Z,12.90
2022-07-26T17:31:46.854Z,12.10
2022-07-26T17:34:19.546Z,13.00
2022-07-26T17:37:00.019Z,12.90
2022-07-26T17:39:52.386Z,14.60
2022-07-26T17:42:26.022Z,14.50
2022-07-26T17:44:58.416Z,14.40
2022-07-26T17:47:31.032Z,13.90
2022-07-26T17:52:58.260Z,15.10
2022-07-26T17:55:32.439Z,13.70
2022-07-26T17:58:05.116Z,14.70
2022-07-26T18:00:39.364Z,12.60
2022-07-26T18:03:11.777Z,25.70
2022-07-26T18:05:44.558Z,18.00
2022-07-26T18:08:16.884Z,14.50
2022-07-26T18:10:51.224Z,13.30
2022-07-26T18:13:24.231Z,12.00
2022-07-26T18:15:57.082Z,15.50
2022-07-26T18:18:29.458Z,13.90
2022-07-26T18:21:03.897Z,16.20
2022-07-26T18:23:36.215Z,16.20
2022-07-26T18:26:09.425Z,17.50
2022-07-26T18:28:42.528Z,18.20
2022-07-26T18:31:21.667Z,16.70
2022-07-26T18:33:55.933Z,17.60
2022-07-26T18:36:28.587Z,16.80
2022-07-26T18:39:03.872Z,17.10
2022-07-26T18:41:36.111Z,18.80
2022-07-26T18:44:09.497Z,16.20
2022-07-26T18:46:44.960Z,17.80
2022-07-26T18:49:20.040Z,17.00
2022-07-26T18:51:53.410Z,19.60
2022-07-26T18:54:26.732Z,20.00
2022-07-26T18:56:58.875Z,21.70
2022-07-26T18:59:31.376Z,19.20
2022-07-26T19:02:04.091Z,18.20
2022-07-26T19:04:36.437Z,20.70
2022-07-26T19:07:11.417Z,22.40
2022-07-26T19:09:43.643Z,20.50
2022-07-26T19:12:15.746Z,24.80
2022-07-26T19:14:48.312Z,25.20
2022-07-26T19:17:22.882Z,22.30
2022-07-26T19:19:55.697Z,22.30
2022-07-26T19:22:30.538Z,22.40
2022-07-26T19:25:03.116Z,31.00
2022-07-26T19:27:35.254Z,28.60
2022-07-26T19:30:11.315Z,24.10
2022-07-26T19:32:43.565Z,23.50
2022-07-26T19:35:15.926Z,22.80
2022-07-26T19:37:48.684Z,25.60
2022-07-26T19:40:20.753Z,22.90
2022-07-26T19:42:53.187Z,25.40
2022-07-26T19:45:25.776Z,24.00
2022-07-26T19:47:58.162Z,24.10
2022-07-26T19:50:30.293Z,24.90
2022-07-26T19:53:02.712Z,26.20
2022-07-26T19:55:38.611Z,26.40
2022-07-26T19:58:11.261Z,25.90
2022-07-26T20:00:43.418Z,25.50
2022-07-26T20:03:17.065Z,24.20
2022-07-26T20:05:49.043Z,25.40
2022-07-26T20:08:21.237Z,27.10
2022-07-26T20:10:54.000Z,25.60
2022-07-26T20:13:26.208Z,28.50
2022-07-26T20:15:58.790Z,32.70
2022-07-26T20:18:31.552Z,35.00
2022-07-26T20:21:03.822Z,45.90
2022-07-26T20:23:36.959Z,52.70
2022-07-26T20:26:09.349Z,53.80
2022-07-26T20:28:42.109Z,55.30
2022-07-26T20:31:14.302Z,44.60
2022-07-26T20:33:46.551Z,43.30
2022-07-26T20:36:18.709Z,40.80
2022-07-26T20:38:51.752Z,39.60
2022-07-26T20:41:25.745Z,33.80
2022-07-26T20:43:58.036Z,33.70
2022-07-26T20:46:32.059Z,29.10
2022-07-26T20:49:06.940Z,29.60
2022-07-26T20:51:39.250Z,32.90
2022-07-26T20:54:12.313Z,28.20
2022-07-26T20:56:44.462Z,35.10
2022-07-26T20:59:17.095Z,33.30
2022-07-26T21:01:49.935Z,33.20
2022-07-26T21:04:22.247Z,32.80
2022-07-26T21:06:55.100Z,32.70
2022-07-26T21:09:30.566Z,34.30
2022-07-26T21:12:02.774Z,30.80
2022-07-26T21:14:35.146Z,30.10
2022-07-26T21:17:11.569Z,31.20
2022-07-26T21:19:44.477Z,32.80
2022-07-26T21:22:16.541Z,30.90
2022-07-26T21:24:50.298Z,31.50
2022-07-26T21:27:22.725Z,33.10
2022-07-26T21:29:55.235Z,32.20
2022-07-26T21:32:31.695Z,32.60
2022-07-26T21:35:04.768Z,32.30
2022-07-26T21:37:36.881Z,33.90
2022-07-26T21:40:11.252Z,33.30
2022-07-26T21:42:43.508Z,33.60
2022-07-26T21:45:15.582Z,32.20
2022-07-26T21:47:47.909Z,31.40
2022-07-26T21:50:20.394Z,33.50
2022-07-26T21:52:53.156Z,31.50
2022-07-26T21:55:25.485Z,33.80
2022-07-26T21:57:58.148Z,38.50
2022-07-26T22:00:31.162Z,34.90
2022-07-26T22:03:04.742Z,33.30
2022-07-26T22:05:42.756Z,33.00
2022-07-26T22:08:17.372Z,33.70
2022-07-26T22:10:50.325Z,33.90
2022-07-26T22:13:23.215Z,34.10
2022-07-26T22:15:55.458Z,34.90
2022-07-26T22:18:27.990Z,37.70
2022-07-26T22:21:01.180Z,42.90
2022-07-26T22:23:34.064Z,40.90
2022-07-26T22:26:08.144Z,45.30
2022-07-26T22:28:40.750Z,41.00
2022-07-26T22:31:13.203Z,35.50
2022-07-26T22:33:46.662Z,35.80
2022-07-26T22:36:19.378Z,39.60
2022-07-26T22:38:51.895Z,39.30
2022-07-26T22:41:24.658Z,44.60
2022-07-26T22:43:57.241Z,40.60
2022-07-26T22:46:29.816Z,41.20
2022-07-26T22:49:03.553Z,34.10
2022-07-26T22:51:35.782Z,43.70
2022-07-26T22:54:09.546Z,35.80
2022-07-26T22:56:42.506Z,34.20
2022-07-26T22:59:15.236Z,33.40
2022-07-26T23:01:47.667Z,30.50
2022-07-26T23:04:19.729Z,31.40
2022-07-26T23:06:54.921Z,31.60
2022-07-26T23:09:27.290Z,32.00
2022-07-26T23:12:01.007Z,34.10
2022-07-26T23:14:33.159Z,33.20
2022-07-26T23:17:06.111Z,30.80
2022-07-26T23:19:38.812Z,31.00
2022-07-26T23:22:11.920Z,32.00
2022-07-26T23:24:47.404Z,34.10
2022-07-26T23:27:20.255Z,29.60
2022-07-26T23:29:52.540Z,31.10
2022-07-26T23:32:25.122Z,31.10
2022-07-26T23:34:57.158Z,32.30
2022-07-26T23:37:29.586Z,32.60
2022-07-26T23:40:01.844Z,33.10
2022-07-26T23:42:34.700Z,33.60
2022-07-26T23:45:09.758Z,29.90
2022-07-26T23:47:42.143Z,28.40
2022-07-26T23:50:14.605Z,35.40
2022-07-26T23:52:47.359Z,30.40
2022-07-26T23:55:19.856Z,29.40
2022-07-26T23:57:51.733Z,31.70
